Terminal Aerodrome Forecast
Issued by NWS

Home | Current Version | Previous Version | Text Only | Print | Product List | Glossary On
Versions: 1 2 3 4 5 6 7 8 9 10 11 12 13 14 15 16 17 18 19 20
000
FTUS41 KPHI 300823 AAB
TAFMIV
TAF AMD
KMIV 300823Z 3008/3106 00000KT 1SM BR BKN007
      TEMPO 3008/3012 1/2SM FG
     FM301200 18004KT 3SM BR BKN015
     FM301400 20006KT P6SM SCT025
     FM301600 18010G17KT P6SM FEW050
     FM302200 16006KT P6SM SCT060 BKN120=

USA.gov is the U.S. government's official web portal to all federal, state and local government web resources and services.